Clam Lake, WI

5:17 PM CDT on April 28, 2017 (GMT -0500)
MCLRW3 | | Change Station

Elev 1498 ft 46.20 °N, 90.97 °W | Updated 1 hour ago

Scattered Clouds
Scattered Clouds
44.0 °F
Feels Like 41 °F
N
5.0
Wind Variable Wind from West
Gusts 12.0 mph

Today
High -- | Low -- °F
--% Chance of Precip.
Yesterday
High -- | Low -- °F
Precip. -- in
Pressure 29.96 in
Visibility 10.0 miles
Clouds Scattered Clouds 5000 ft
Windchill 41 °F
Dew Point 32.0 °F
Humidity 63%
Rainfall in
Snow Depth Not available.
5:54 AM 8:08 PM
Waxing Crescent, 9% visible
METAR KASX 282153Z AUTO 30010KT 10SM SCT050 09/M02 A2993 RMK AO2 SLP144 T00891022
Pressure 29.96 in
Visibility 10.0 miles
Clouds Scattered Clouds 5000 ft
Windchill 41 °F
Dew Point 32.0 °F
Humidity 63%
Rainfall in
Snow Depth Not available.
5:54 AM 8:08 PM
Waxing Crescent, 9% visible
METAR KASX 282153Z AUTO 30010KT 10SM SCT050 09/M02 A2993 RMK AO2 SLP144 T00891022

Get Severe Weather Alerts

Thanks for signing up!

Be on the lookout for a verification email in your inbox.

You'll start receiving the daily forecast at 8 AM.

×

10-Day Weather Forecast

Almanac

Astronomy

Apr. 28, 2017 Rise Set
Actual Time
Civil Twilight
Nautical Twilight
Astronomical Twilight
Moon
Length of Visible Light
Length of Day
Tomorrow will be .
, % of the Moon is Illuminated

Today's Extremes

State Highs State Lows

Community

WunderPhotos

WunderBlog® & News

Nearby

Air Quality

  Air Quality AQ Index Pollutant
Not available.

Snow Depth

Station Depth Elevation

Earthquake Activity

City Distance Mag. Time & Date
Minimum magnitude displayed is 2.5.

Coastal Water Temperatures

Place Temperature

Stations

Nearby Weather Stations

Station Location Temp. Windchill Dew Point Humidity Wind Precip. Elev Updated Type
                   

Watches & Warnings

There are currently no watches in effect.